Time;durP1;ratioP1;P1;durP2;ratioP2;P2;SDS_P1;SDS_P2;PMS_P1;PMS_P2;Temp;Humidity;BMP_temperature;BMP_pressure;BME280_temperature;BME280_humidity;BME280_pressure;Samples;Min_cycle;Max_cycle;Signal;HPM_P1;HPM_P2
2023/07/24 00:00:45;;;;;;;3.10;2.90;;;21.00;99.90;;;;;;5108930;27;20619;-77
2023/07/24 00:03:11;;;;;;;4.10;2.92;;;21.00;99.90;;;;;;5127393;27;20690;-77
2023/07/24 00:05:38;;;;;;;3.42;2.60;;;21.00;99.90;;;;;;5127947;27;20294;-78
2023/07/24 00:08:07;;;;;;;3.33;3.03;;;21.00;99.90;;;;;;5127660;27;20549;-80
2023/07/24 00:10:34;;;;;;;3.13;2.92;;;21.00;99.90;;;;;;5127968;27;20755;-80
2023/07/24 00:13:03;;;;;;;2.38;2.25;;;20.80;99.90;;;;;;5127534;27;20577;-78
2023/07/24 00:15:29;;;;;;;2.73;2.53;;;20.60;99.90;;;;;;5127674;27;20250;-79
2023/07/24 00:17:56;;;;;;;3.93;2.57;;;20.50;99.90;;;;;;5123003;27;20284;-80
2023/07/24 00:20:24;;;;;;;4.33;2.63;;;20.50;99.90;;;;;;5127465;27;20228;-79
2023/07/24 00:22:51;;;;;;;5.53;2.87;;;20.50;99.90;;;;;;5127050;27;20209;-79
2023/07/24 00:25:19;;;;;;;3.03;2.83;;;20.50;99.90;;;;;;5127448;27;20205;-79
2023/07/24 00:27:46;;;;;;;2.85;2.60;;;20.50;99.90;;;;;;5127258;27;20777;-78
2023/07/24 00:30:13;;;;;;;3.53;2.40;;;20.50;99.90;;;;;;5122606;27;20316;-78
2023/07/24 00:32:40;;;;;;;3.08;2.88;;;20.50;99.90;;;;;;5126404;27;20237;-78
2023/07/24 00:35:08;;;;;;;3.35;2.97;;;20.60;99.90;;;;;;5125925;27;20202;-78
2023/07/24 00:37:35;;;;;;;3.00;2.80;;;20.60;99.90;;;;;;5127091;27;20955;-78
2023/07/24 00:40:02;;;;;;;3.00;2.80;;;20.50;99.90;;;;;;5126684;27;20685;-79
2023/07/24 00:42:30;;;;;;;2.90;2.70;;;20.50;99.90;;;;;;5127138;27;20208;-78
2023/07/24 00:44:57;;;;;;;2.90;2.70;;;20.50;99.90;;;;;;5138695;27;20281;-78
2023/07/24 00:47:26;;;;;;;2.57;2.47;;;20.50;99.90;;;;;;5114854;27;20236;-78
2023/07/24 00:49:53;;;;;;;2.80;2.60;;;20.50;99.90;;;;;;5132615;27;20211;-78
2023/07/24 00:52:21;;;;;;;3.17;2.60;;;20.40;99.90;;;;;;5127796;27;20288;-78
2023/07/24 00:54:48;;;;;;;3.00;2.80;;;20.50;99.90;;;;;;5127096;27;20659;-78
2023/07/24 00:57:15;;;;;;;3.60;2.83;;;20.40;99.90;;;;;;5126732;27;20393;-78
2023/07/24 00:59:45;;;;;;;3.00;2.80;;;20.30;99.90;;;;;;5126459;27;20233;-78
2023/07/24 01:02:12;;;;;;;3.00;2.83;;;20.30;99.90;;;;;;5126803;27;20301;-78
2023/07/24 01:04:39;;;;;;;3.47;3.17;;;20.30;99.90;;;;;;5126400;27;20266;-78
2023/07/24 01:07:07;;;;;;;3.33;3.03;;;20.30;99.90;;;;;;5115436;27;20699;-79
2023/07/24 01:09:33;;;;;;;3.23;2.93;;;20.30;99.90;;;;;;5106558;28;20213;-78
2023/07/24 01:12:05;;;;;;;2.63;2.30;;;20.30;99.90;;;;;;5105509;28;20206;-77
2023/07/24 01:14:39;;;;;;;3.03;2.60;;;20.30;99.90;;;;;;5105676;28;20240;-78
2023/07/24 01:17:09;;;;;;;3.87;3.27;;;20.30;99.90;;;;;;5106263;28;20201;-77
2023/07/24 01:19:39;;;;;;;2.80;2.60;;;20.40;99.90;;;;;;5106052;28;20732;-77
2023/07/24 01:22:15;;;;;;;3.10;2.90;;;20.40;99.90;;;;;;5119414;27;20209;-78
2023/07/24 01:25:00;;;;;;;6.73;3.20;;;20.30;99.90;;;;;;5125336;27;20197;-78
2023/07/24 01:27:28;;;;;;;2.80;2.57;;;20.30;99.90;;;;;;5121933;28;20312;-78
2023/07/24 01:29:55;;;;;;;3.30;3.10;;;20.20;99.90;;;;;;5106058;28;20289;-78
2023/07/24 01:32:22;;;;;;;4.43;2.90;;;20.10;99.90;;;;;;5123921;28;20293;-77
2023/07/24 01:34:49;;;;;;;3.00;2.60;;;20.20;99.90;;;;;;5126430;28;20296;-77
2023/07/24 01:37:17;;;;;;;3.63;2.83;;;20.20;99.90;;;;;;5126377;28;20318;-76
2023/07/24 01:39:46;;;;;;;3.70;3.00;;;20.20;99.90;;;;;;5126969;27;20217;-78
2023/07/24 01:42:13;;;;;;;4.90;2.60;;;20.10;99.90;;;;;;5137128;27;20224;-79
2023/07/24 01:44:42;;;;;;;3.10;2.90;;;20.30;99.90;;;;;;5119979;28;20218;-79
2023/07/24 01:47:09;;;;;;;2.93;2.73;;;20.20;99.90;;;;;;5126223;28;20235;-79
2023/07/24 01:49:36;;;;;;;2.83;2.70;;;20.20;99.90;;;;;;5127003;27;20281;-79
2023/07/24 01:52:02;;;;;;;3.83;2.70;;;20.20;99.90;;;;;;5126225;28;20225;-78
2023/07/24 01:54:29;;;;;;;3.00;2.70;;;20.20;99.90;;;;;;5125883;28;20288;-78
2023/07/24 01:56:56;;;;;;;3.90;2.77;;;20.20;99.90;;;;;;5126361;28;20211;-78
2023/07/24 01:59:23;;;;;;;2.87;2.67;;;20.20;99.90;;;;;;5122171;28;20246;-78
2023/07/24 02:01:51;;;;;;;2.73;2.53;;;20.20;99.90;;;;;;5105319;28;20218;-79
2023/07/24 02:04:21;;;;;;;2.80;2.60;;;20.20;99.90;;;;;;5105492;28;20210;-78
2023/07/24 02:06:48;;;;;;;2.63;2.40;;;20.20;99.90;;;;;;5117236;28;20293;-78
2023/07/24 02:09:15;;;;;;;2.70;2.50;;;20.20;99.90;;;;;;5126658;28;20205;-78
2023/07/24 02:11:42;;;;;;;2.63;2.40;;;20.20;99.90;;;;;;5126301;28;20570;-78
2023/07/24 02:14:09;;;;;;;2.97;2.67;;;20.20;99.90;;;;;;5126225;28;20766;-78
2023/07/24 02:16:37;;;;;;;4.30;2.10;;;20.20;99.90;;;;;;5125897;28;20959;-76
2023/07/24 02:19:05;;;;;;;2.53;2.33;;;20.20;99.90;;;;;;5123019;27;20237;-79
2023/07/24 02:21:32;;;;;;;2.60;2.37;;;20.20;99.90;;;;;;5115689;27;20205;-82
2023/07/24 02:23:59;;;;;;;2.50;2.30;;;20.20;99.90;;;;;;5128529;27;20205;-82
2023/07/24 02:26:26;;;;;;;2.93;2.13;;;20.20;99.90;;;;;;5113947;27;20300;-81
2023/07/24 02:28:53;;;;;;;2.60;2.43;;;20.20;99.90;;;;;;5108036;27;20297;-81
2023/07/24 02:31:20;;;;;;;2.73;2.53;;;20.20;99.90;;;;;;5107488;28;20229;-82
2023/07/24 02:33:48;;;;;;;2.60;2.33;;;20.20;99.90;;;;;;5108007;28;20575;-81
2023/07/24 02:36:16;;;;;;;2.43;2.33;;;20.30;99.90;;;;;;5112532;27;20198;-82
2023/07/24 02:38:43;;;;;;;2.93;2.67;;;20.30;99.90;;;;;;5135535;27;20205;-82
2023/07/24 02:41:10;;;;;;;2.30;2.20;;;20.40;99.90;;;;;;5107115;28;20213;-83
2023/07/24 02:43:36;;;;;;;2.53;2.40;;;20.40;99.90;;;;;;5107307;28;20232;-81
2023/07/24 02:46:03;;;;;;;2.87;2.67;;;20.50;99.90;;;;;;5118535;27;20262;-82
2023/07/24 02:48:31;;;;;;;2.40;2.30;;;20.50;99.90;;;;;;5126356;27;20243;-81
2023/07/24 02:50:58;;;;;;;2.83;2.47;;;20.50;99.90;;;;;;5106764;28;20206;-81
2023/07/24 02:53:26;;;;;;;2.50;2.30;;;20.50;99.90;;;;;;5107478;28;20206;-82
2023/07/24 02:55:53;;;;;;;3.03;2.40;;;20.40;99.90;;;;;;5107005;28;20206;-81
2023/07/24 02:58:19;;;;;;;2.60;2.40;;;20.40;99.90;;;;;;5106748;28;20252;-81
2023/07/24 03:00:46;;;;;;;2.47;2.17;;;20.30;99.90;;;;;;5107714;27;20208;-80
2023/07/24 03:03:13;;;;;;;2.30;2.20;;;20.30;99.90;;;;;;5107634;28;20440;-81
2023/07/24 03:05:40;;;;;;;2.50;2.30;;;20.20;99.90;;;;;;5107031;28;20206;-81
2023/07/24 03:08:07;;;;;;;2.40;2.30;;;20.20;99.90;;;;;;5107405;28;20234;-80
2023/07/24 03:10:35;;;;;;;2.30;2.10;;;20.20;99.90;;;;;;5107747;28;20297;-80
2023/07/24 03:13:02;;;;;;;2.73;2.03;;;20.20;99.90;;;;;;5107364;28;20241;-81
2023/07/24 03:15:29;;;;;;;2.30;2.10;;;20.20;99.90;;;;;;5107438;28;20656;-80
2023/07/24 03:17:57;;;;;;;2.33;2.13;;;20.10;99.90;;;;;;5114756;27;21066;-81
2023/07/24 03:20:24;;;;;;;2.00;1.90;;;20.10;99.90;;;;;;5128677;27;20279;-81
2023/07/24 03:22:50;;;;;;;2.33;2.13;;;20.10;99.90;;;;;;5128903;27;20617;-80
2023/07/24 03:25:17;;;;;;;3.33;2.53;;;20.10;99.90;;;;;;5128270;27;20576;-80
2023/07/24 03:27:45;;;;;;;2.00;1.90;;;20.10;99.90;;;;;;5128459;27;20699;-80
2023/07/24 03:30:13;;;;;;;4.60;2.00;;;20.10;99.90;;;;;;5117474;27;20299;-80
2023/07/24 03:32:39;;;;;;;2.97;2.00;;;20.10;99.90;;;;;;5112103;27;20217;-81
2023/07/24 03:35:07;;;;;;;2.10;2.00;;;20.00;99.90;;;;;;5114600;27;20308;-81
2023/07/24 03:37:35;;;;;;;1.90;1.80;;;19.90;99.90;;;;;;5108086;28;20228;-80
2023/07/24 03:40:02;;;;;;;3.53;1.70;;;19.70;99.90;;;;;;5108033;28;20309;-80
2023/07/24 03:42:31;;;;;;;2.00;1.53;;;19.60;99.90;;;;;;5107808;28;20262;-79
2023/07/24 03:44:59;;;;;;;1.73;1.63;;;19.60;99.90;;;;;;5107206;28;20202;-80
2023/07/24 03:47:26;;;;;;;1.90;1.80;;;19.60;99.90;;;;;;5107775;28;20348;-79
2023/07/24 03:49:53;;;;;;;1.83;1.73;;;19.50;99.90;;;;;;5120761;27;20209;-80
2023/07/24 03:52:20;;;;;;;2.43;1.53;;;19.50;99.90;;;;;;5108512;27;20288;-80
2023/07/24 03:54:47;;;;;;;2.00;1.83;;;19.50;99.90;;;;;;5107119;28;20214;-81
2023/07/24 03:57:14;;;;;;;1.90;1.70;;;19.60;99.90;;;;;;5107229;28;20689;-81
2023/07/24 03:59:40;;;;;;;2.07;1.43;;;19.60;99.90;;;;;;5106793;28;21068;-80
2023/07/24 04:02:09;;;;;;;1.80;1.70;;;19.60;99.90;;;;;;5107211;28;20864;-81
2023/07/24 04:04:36;;;;;;;1.93;1.67;;;19.60;99.90;;;;;;5107152;28;20312;-81
2023/07/24 04:07:03;;;;;;;2.10;2.00;;;19.50;99.90;;;;;;5107015;28;20214;-81
2023/07/24 04:09:30;;;;;;;2.17;1.87;;;19.60;99.90;;;;;;5108725;27;20206;-81
2023/07/24 04:11:56;;;;;;;2.13;1.83;;;19.50;99.90;;;;;;5128090;27;20259;-81
2023/07/24 04:14:23;;;;;;;1.60;1.50;;;19.50;99.90;;;;;;5118688;27;20229;-81
2023/07/24 04:16:50;;;;;;;1.93;1.83;;;19.50;99.90;;;;;;5106862;28;20206;-81
2023/07/24 04:19:18;;;;;;;1.80;1.70;;;19.50;99.90;;;;;;5115387;27;20217;-81
2023/07/24 04:21:45;;;;;;;2.80;1.70;;;19.50;99.90;;;;;;5127680;27;20208;-81
2023/07/24 04:24:12;;;;;;;2.17;1.97;;;19.50;99.90;;;;;;5127424;27;20209;-81
2023/07/24 04:26:39;;;;;;;2.23;2.03;;;19.60;99.90;;;;;;5127759;27;20201;-81
2023/07/24 04:29:06;;;;;;;2.23;1.60;;;19.60;99.90;;;;;;5126814;27;20233;-81
2023/07/24 04:31:33;;;;;;;1.63;1.53;;;19.60;99.90;;;;;;5112746;27;20202;-82
2023/07/24 04:34:00;;;;;;;2.80;1.50;;;19.60;99.90;;;;;;5106755;28;20209;-81
2023/07/24 04:36:28;;;;;;;1.60;1.50;;;19.70;99.90;;;;;;5106923;28;20206;-80
2023/07/24 04:38:55;;;;;;;1.47;1.40;;;19.70;99.90;;;;;;5106351;28;20321;-82
2023/07/24 04:41:22;;;;;;;1.60;1.50;;;19.70;99.90;;;;;;5106648;28;20202;-81
2023/07/24 04:43:48;;;;;;;2.97;1.80;;;19.70;99.90;;;;;;5106127;28;20317;-81
2023/07/24 04:46:15;;;;;;;2.40;1.33;;;19.70;99.90;;;;;;5106583;28;20208;-81
2023/07/24 04:48:42;;;;;;;1.67;1.50;;;19.80;99.90;;;;;;5109908;27;20239;-80
2023/07/24 04:51:08;;;;;;;1.80;1.60;;;19.80;99.90;;;;;;5127305;27;20309;-81
2023/07/24 04:53:37;;;;;;;1.47;1.37;;;19.90;99.90;;;;;;5126424;27;20292;-81
2023/07/24 04:56:04;;;;;;;1.60;1.50;;;19.90;99.90;;;;;;5126409;27;20292;-81
2023/07/24 04:58:30;;;;;;;1.20;1.17;;;19.90;99.90;;;;;;5126536;27;20316;-81
2023/07/24 05:00:57;;;;;;;1.30;1.30;;;19.90;99.90;;;;;;5113842;27;20253;-81
2023/07/24 05:03:24;;;;;;;1.37;1.37;;;19.90;99.90;;;;;;5126448;27;20649;-81
2023/07/24 05:05:55;;;;;;;1.50;1.50;;;20.00;99.90;;;;;;5126217;27;20198;-81
2023/07/24 05:08:22;;;;;;;1.70;1.60;;;20.00;99.90;;;;;;5126029;27;20225;-81
2023/07/24 05:10:55;;;;;;;4.87;1.67;;;20.10;99.90;;;;;;5111526;27;20216;-81
2023/07/24 05:13:22;;;;;;;1.37;1.37;;;20.10;99.90;;;;;;5105766;28;20988;-81
2023/07/24 05:15:49;;;;;;;1.73;1.40;;;20.20;99.90;;;;;;5105889;28;20314;-82
2023/07/24 05:18:16;;;;;;;1.33;1.33;;;20.30;99.90;;;;;;5105800;28;20205;-81
2023/07/24 05:20:46;;;;;;;1.40;1.40;;;20.40;99.90;;;;;;5105679;28;20206;-81
2023/07/24 05:23:13;;;;;;;1.50;1.40;;;20.40;99.90;;;;;;5106001;28;20292;-81
2023/07/24 05:25:39;;;;;;;1.40;1.37;;;20.50;99.90;;;;;;5113683;27;20743;-81
2023/07/24 05:28:08;;;;;;;1.73;1.40;;;20.50;99.90;;;;;;5108850;28;20765;-81
2023/07/24 05:30:34;;;;;;;1.30;1.30;;;20.50;99.90;;;;;;5106017;28;20205;-81
2023/07/24 05:33:01;;;;;;;1.20;1.20;;;20.50;99.90;;;;;;5105574;28;20292;-81
2023/07/24 05:35:28;;;;;;;1.50;1.50;;;20.50;99.90;;;;;;5105872;28;20210;-80
2023/07/24 05:37:55;;;;;;;1.20;1.20;;;20.50;99.90;;;;;;5105467;28;20840;-81
2023/07/24 05:40:22;;;;;;;1.70;1.60;;;20.50;99.90;;;;;;5105592;28;20202;-80
2023/07/24 05:42:49;;;;;;;2.23;1.33;;;20.50;99.90;;;;;;5105022;28;20791;-81
2023/07/24 05:45:17;;;;;;;2.10;1.73;;;20.60;99.90;;;;;;5105082;28;20721;-81
2023/07/24 05:47:44;;;;;;;1.03;1.03;;;20.60;99.90;;;;;;5105867;28;20298;-81
2023/07/24 05:50:13;;;;;;;1.40;1.27;;;20.60;99.90;;;;;;5137175;27;20208;-81
2023/07/24 05:52:40;;;;;;;1.60;1.50;;;20.70;99.90;;;;;;5147183;27;20251;-80
2023/07/24 05:55:08;;;;;;;1.40;1.30;;;20.70;99.90;;;;;;5146689;27;20208;-81
2023/07/24 05:57:35;;;;;;;1.47;1.37;;;20.70;99.90;;;;;;5147062;27;20208;-80
2023/07/24 06:00:02;;;;;;;3.10;1.27;;;20.70;99.90;;;;;;5150542;27;20311;-81
2023/07/24 06:02:30;;;;;;;1.53;1.40;;;20.70;99.90;;;;;;5145190;27;20232;-80
2023/07/24 06:04:57;;;;;;;1.50;1.50;;;20.60;99.90;;;;;;5130178;27;20300;-80
2023/07/24 06:07:24;;;;;;;1.60;1.60;;;20.60;99.90;;;;;;5116632;27;20315;-81
2023/07/24 06:09:50;;;;;;;1.20;1.20;;;20.60;99.90;;;;;;5109241;28;20232;-82
2023/07/24 06:12:17;;;;;;;1.43;1.33;;;20.70;99.90;;;;;;5109171;28;20305;-81
2023/07/24 06:14:45;;;;;;;1.70;1.60;;;20.70;99.90;;;;;;5108720;28;20212;-81
2023/07/24 06:17:11;;;;;;;1.60;1.50;;;20.80;99.90;;;;;;5108585;28;20209;-81
2023/07/24 06:19:40;;;;;;;1.50;1.50;;;20.90;99.90;;;;;;5109187;28;20216;-81
2023/07/24 06:22:07;;;;;;;1.57;1.50;;;20.90;99.90;;;;;;5113268;27;20815;-81
2023/07/24 06:24:33;;;;;;;1.77;1.67;;;20.90;99.90;;;;;;5127697;27;20255;-81
2023/07/24 06:27:00;;;;;;;1.90;1.80;;;21.00;99.90;;;;;;5129424;27;20209;-81
2023/07/24 06:29:28;;;;;;;1.70;1.60;;;21.00;99.90;;;;;;5129368;27;20229;-81
2023/07/24 06:31:54;;;;;;;1.93;1.77;;;21.00;99.90;;;;;;5129692;27;20266;-81
2023/07/24 06:34:21;;;;;;;1.90;1.70;;;21.10;99.90;;;;;;5129345;27;20202;-81
2023/07/24 06:36:49;;;;;;;1.33;1.33;;;21.10;99.90;;;;;;5129221;27;20209;-83
2023/07/24 06:39:16;;;;;;;1.90;1.80;;;21.20;99.90;;;;;;5129456;27;20258;-81
2023/07/24 06:41:43;;;;;;;1.87;1.77;;;21.30;99.90;;;;;;5128899;27;20205;-81
2023/07/24 06:44:10;;;;;;;2.40;1.90;;;21.40;99.90;;;;;;5129028;27;20295;-81
2023/07/24 06:46:37;;;;;;;2.20;2.10;;;21.40;99.90;;;;;;5129087;27;20209;-81
2023/07/24 06:49:04;;;;;;;1.97;1.87;;;21.50;99.90;;;;;;5123024;27;20348;-80
2023/07/24 06:51:31;;;;;;;1.83;1.73;;;21.50;99.90;;;;;;5108662;28;20210;-80
2023/07/24 06:53:59;;;;;;;2.50;2.30;;;21.50;99.90;;;;;;5108293;28;20206;-80
2023/07/24 06:56:26;;;;;;;2.07;1.97;;;21.60;99.90;;;;;;5108367;28;20300;-80
2023/07/24 06:58:53;;;;;;;1.93;1.83;;;21.60;99.90;;;;;;5108219;28;20246;-81
2023/07/24 07:01:20;;;;;;;2.10;2.00;;;21.70;99.90;;;;;;5108426;28;20582;-81
2023/07/24 07:03:47;;;;;;;2.20;2.10;;;21.70;99.90;;;;;;5108341;28;21013;-81
2023/07/24 07:06:13;;;;;;;2.00;1.90;;;21.70;99.90;;;;;;5108509;28;20274;-80
2023/07/24 07:08:40;;;;;;;1.83;1.73;;;21.70;99.90;;;;;;5108043;28;20340;-81
2023/07/24 07:11:08;;;;;;;1.93;1.83;;;21.80;99.90;;;;;;5108089;27;20210;-81
2023/07/24 07:13:35;;;;;;;2.10;2.00;;;21.80;99.90;;;;;;5128065;27;20660;-80
2023/07/24 07:16:02;;;;;;;3.83;2.25;;;21.90;99.90;;;;;;5128639;27;20568;-81
2023/07/24 07:18:29;;;;;;;2.20;2.10;;;21.90;99.90;;;;;;5129054;27;20218;-80
2023/07/24 07:20:56;;;;;;;2.25;2.00;;;21.90;99.90;;;;;;5129191;27;20217;-81
2023/07/24 07:23:23;;;;;;;2.22;2.13;;;22.00;99.90;;;;;;5129198;27;20321;-81
2023/07/24 07:25:51;;;;;;;2.33;2.22;;;22.10;99.90;;;;;;5129281;27;20209;-81
2023/07/24 07:28:19;;;;;;;2.10;2.00;;;22.20;99.90;;;;;;5128554;27;20205;-80
2023/07/24 07:30:46;;;;;;;2.30;2.20;;;22.20;99.90;;;;;;5128752;27;20209;-80
2023/07/24 07:33:13;;;;;;;2.22;2.13;;;22.20;99.90;;;;;;5128686;27;20201;-81
2023/07/24 07:35:40;;;;;;;2.27;2.07;;;22.30;99.90;;;;;;5128746;27;20667;-81
2023/07/24 07:38:07;;;;;;;2.03;1.77;;;22.30;99.90;;;;;;5128492;27;20263;-81
2023/07/24 07:40:34;;;;;;;2.00;1.90;;;22.40;99.90;;;;;;5128533;27;20316;-81
2023/07/24 07:43:01;;;;;;;1.90;1.80;;;22.50;99.90;;;;;;5128006;27;20270;-80
2023/07/24 07:45:29;;;;;;;1.70;1.60;;;22.60;99.90;;;;;;5128588;27;20207;-80
2023/07/24 07:47:56;;;;;;;1.35;1.35;;;22.60;99.90;;;;;;5128183;27;20308;-81
2023/07/24 07:50:23;;;;;;;1.60;1.50;;;22.70;99.90;;;;;;5110900;27;20328;-81
2023/07/24 07:52:51;;;;;;;1.88;1.55;;;22.70;99.90;;;;;;5107291;28;20298;-80
2023/07/24 07:55:19;;;;;;;1.85;1.75;;;22.70;99.90;;;;;;5107157;28;20258;-81
2023/07/24 07:57:46;;;;;;;1.60;1.50;;;22.90;99.90;;;;;;5107647;28;20209;-81
2023/07/24 08:00:13;;;;;;;1.55;1.55;;;22.90;99.90;;;;;;5106637;28;20244;-80
2023/07/24 08:02:44;;;;;;;1.40;1.40;;;23.10;99.90;;;;;;5107408;28;20250;-81
2023/07/24 08:05:12;;;;;;;1.42;1.42;;;23.10;99.90;;;;;;5107451;28;20458;-81
2023/07/24 08:07:39;;;;;;;1.60;1.45;;;23.10;99.90;;;;;;5107241;28;20754;-80
2023/07/24 08:10:06;;;;;;;1.60;1.52;;;23.10;99.90;;;;;;5106938;28;20226;-80
2023/07/24 08:12:33;;;;;;;2.63;1.80;;;23.10;99.90;;;;;;5107227;28;20213;-81
2023/07/24 08:15:00;;;;;;;1.60;1.50;;;23.10;99.90;;;;;;5107778;27;20224;-80
2023/07/24 08:17:27;;;;;;;1.80;1.65;;;23.20;99.90;;;;;;5127842;27;20316;-81
2023/07/24 08:19:55;;;;;;;1.85;1.75;;;23.30;99.90;;;;;;5140517;27;20937;-81
2023/07/24 08:22:23;;;;;;;1.73;1.50;;;23.30;99.90;;;;;;5148035;27;20621;-80
2023/07/24 08:24:51;;;;;;;1.75;1.65;;;23.40;99.90;;;;;;5147664;27;20445;-81
2023/07/24 08:27:18;;;;;;;1.65;1.60;;;23.60;99.90;;;;;;5148258;27;20569;-81
2023/07/24 08:29:45;;;;;;;2.33;2.22;;;23.60;99.90;;;;;;5147620;27;20339;-80
2023/07/24 08:32:12;;;;;;;2.25;1.90;;;23.60;99.90;;;;;;5148026;27;20280;-81
2023/07/24 08:34:39;;;;;;;2.08;1.98;;;23.50;99.90;;;;;;5147667;27;20216;-80
2023/07/24 08:37:08;;;;;;;2.22;2.13;;;23.50;99.90;;;;;;5147412;27;20865;-81
2023/07/24 08:39:34;;;;;;;2.08;1.92;;;23.40;99.90;;;;;;5147652;27;20287;-81
2023/07/24 08:42:09;;;;;;;1.80;1.70;;;23.40;99.90;;;;;;5147510;27;20311;-81
2023/07/24 08:44:37;;;;;;;2.58;2.38;;;23.40;99.90;;;;;;5147385;27;20188;-81
2023/07/24 08:47:07;;;;;;;1.98;1.88;;;23.40;99.90;;;;;;5147225;27;20768;-80
2023/07/24 08:49:35;;;;;;;1.80;1.70;;;23.60;99.90;;;;;;5137682;27;20638;-81
2023/07/24 08:52:04;;;;;;;2.40;2.20;;;23.60;99.90;;;;;;5127012;27;20205;-80
2023/07/24 08:54:36;;;;;;;2.35;2.10;;;23.60;99.90;;;;;;5126572;27;20666;-80
2023/07/24 08:57:05;;;;;;;2.03;1.92;;;23.50;99.90;;;;;;5106198;28;20297;-81
2023/07/24 08:59:32;;;;;;;1.90;1.80;;;23.60;99.90;;;;;;5117916;27;20324;-80
2023/07/24 09:01:59;;;;;;;1.85;1.75;;;23.60;99.90;;;;;;5126771;27;20581;-78
2023/07/24 09:04:26;;;;;;;1.85;1.75;;;23.70;99.90;;;;;;5126738;27;20263;-79
2023/07/24 09:06:53;;;;;;;2.03;1.92;;;23.80;99.90;;;;;;5126487;27;20269;-78
2023/07/24 09:09:21;;;;;;;2.20;2.10;;;23.90;99.90;;;;;;5126822;27;20616;-79
2023/07/24 09:11:50;;;;;;;1.92;1.83;;;24.00;99.90;;;;;;5121388;27;20644;-78
2023/07/24 09:14:24;;;;;;;2.05;1.95;;;24.00;99.90;;;;;;5108435;27;20205;-78
2023/07/24 09:17:02;;;;;;;2.10;2.00;;;24.10;99.90;;;;;;5126476;27;20296;-79
2023/07/24 09:19:29;;;;;;;1.55;1.45;;;24.20;99.90;;;;;;5126906;27;20289;-78
2023/07/24 09:21:56;;;;;;;1.80;1.70;;;24.10;99.90;;;;;;5127022;27;20212;-80
2023/07/24 09:24:22;;;;;;;3.05;2.00;;;24.30;99.90;;;;;;5126776;27;20208;-78
2023/07/24 09:26:53;;;;;;;2.00;1.90;;;24.40;99.90;;;;;;5126713;27;20216;-79
2023/07/24 09:29:21;;;;;;;2.08;1.92;;;24.40;99.90;;;;;;5126192;28;20249;-78
2023/07/24 09:31:48;;;;;;;2.13;1.90;;;24.50;99.90;;;;;;5126411;28;20212;-78
2023/07/24 09:34:17;;;;;;;2.20;2.10;;;24.60;99.90;;;;;;5126064;28;20278;-79
2023/07/24 09:36:44;;;;;;;1.92;1.83;;;24.80;99.90;;;;;;5126996;28;20210;-78
2023/07/24 09:39:12;;;;;;;2.13;2.00;;;24.90;99.90;;;;;;5126962;28;20217;-78
2023/07/24 09:41:39;;;;;;;2.30;2.13;;;25.00;99.90;;;;;;5127047;28;20296;-78
2023/07/24 09:44:08;;;;;;;3.33;1.95;;;25.00;99.90;;;;;;5126897;28;20197;-78
2023/07/24 09:46:35;;;;;;;2.65;2.33;;;25.00;99.90;;;;;;5127268;28;20209;-78
2023/07/24 09:49:02;;;;;;;2.85;2.25;;;25.00;99.90;;;;;;5126568;28;20638;-78
2023/07/24 09:51:32;;;;;;;4.13;2.25;;;25.20;99.90;;;;;;5114580;28;20210;-78
2023/07/24 09:54:07;;;;;;;2.15;2.05;;;25.40;99.90;;;;;;5105903;28;20205;-78
2023/07/24 09:56:34;;;;;;;2.30;2.15;;;25.50;99.90;;;;;;5106336;28;20198;-78
2023/07/24 09:59:03;;;;;;;1.98;1.88;;;25.60;99.90;;;;;;5105669;28;20663;-78
2023/07/24 10:01:33;;;;;;;2.20;2.10;;;25.60;99.90;;;;;;5105767;28;20668;-78
2023/07/24 10:04:00;;;;;;;2.45;2.30;;;25.60;99.90;;;;;;5105952;28;20195;-79
2023/07/24 10:06:29;;;;;;;2.72;2.45;;;25.60;99.90;;;;;;5114530;27;20204;-79
2023/07/24 10:08:57;;;;;;;2.15;2.05;;;25.60;99.90;;;;;;5134181;27;20213;-79
2023/07/24 10:11:25;;;;;;;2.53;2.33;;;25.70;99.90;;;;;;5127533;28;20292;-79
2023/07/24 10:13:53;;;;;;;4.35;2.45;;;25.80;99.90;;;;;;5127621;28;20293;-79
2023/07/24 10:16:21;;;;;;;2.83;2.63;;;25.90;99.90;;;;;;5127345;28;20747;-79
2023/07/24 10:18:49;;;;;;;3.03;2.80;;;26.00;99.90;;;;;;5127081;28;20300;-82
2023/07/24 10:21:17;;;;;;;3.70;2.80;;;26.00;99.90;;;;;;5127158;28;20209;-79
2023/07/24 10:23:46;;;;;;;2.60;2.42;;;26.10;99.90;;;;;;5127189;28;20781;-79
2023/07/24 10:26:14;;;;;;;3.00;2.80;;;26.10;99.90;;;;;;5127012;28;20201;-79
2023/07/24 10:28:41;;;;;;;3.35;3.05;;;26.10;99.90;;;;;;5126753;28;20205;-79
2023/07/24 10:31:20;;;;;;;2.90;2.70;;;26.10;99.90;;;;;;5126466;28;21075;-78
2023/07/24 10:33:47;;;;;;;4.57;3.33;;;26.20;99.90;;;;;;5126720;28;20247;-79
2023/07/24 10:36:19;;;;;;;3.75;3.45;;;26.40;99.90;;;;;;5126554;28;20236;-79
2023/07/24 10:38:47;;;;;;;4.25;3.20;;;26.50;99.90;;;;;;5127320;28;20215;-79
2023/07/24 10:41:14;;;;;;;4.57;3.35;;;26.40;99.90;;;;;;5127388;28;20292;-79
2023/07/24 10:43:42;;;;;;;3.53;3.22;;;26.50;99.90;;;;;;5127579;27;20258;-79
2023/07/24 10:46:09;;;;;;;3.85;3.55;;;26.40;99.90;;;;;;5130530;27;20216;-79
2023/07/24 10:48:37;;;;;;;3.40;3.15;;;26.40;99.90;;;;;;5130804;27;20285;-79
2023/07/24 10:51:09;;;;;;;3.70;3.40;;;26.40;99.90;;;;;;5121829;27;20236;-79
2023/07/24 10:53:38;;;;;;;4.28;3.67;;;26.60;99.90;;;;;;5110271;28;20198;-79
2023/07/24 10:56:06;;;;;;;3.30;3.10;;;26.70;99.90;;;;;;5109449;28;20210;-79
2023/07/24 10:58:35;;;;;;;3.42;3.22;;;26.80;99.90;;;;;;5109042;28;20261;-79
2023/07/24 11:01:05;;;;;;;4.28;3.10;;;26.90;99.90;;;;;;5108715;28;20691;-79
2023/07/24 11:03:32;;;;;;;3.38;3.17;;;26.90;99.30;;;;;;5120296;27;20301;-79
2023/07/24 11:06:00;;;;;;;3.20;3.00;;;26.90;99.90;;;;;;5109802;27;20296;-79
2023/07/24 11:08:27;;;;;;;4.05;3.65;;;26.90;99.90;;;;;;5109172;28;20300;-79
2023/07/24 11:10:57;;;;;;;4.00;3.70;;;26.70;99.20;;;;;;5108799;28;20740;-79
2023/07/24 11:13:26;;;;;;;3.88;3.55;;;26.60;99.70;;;;;;5109053;28;20672;-79
2023/07/24 11:15:54;;;;;;;4.45;4.15;;;26.60;99.90;;;;;;5125607;27;20356;-80
2023/07/24 11:18:22;;;;;;;4.75;3.85;;;26.60;99.70;;;;;;5130380;27;20746;-79
2023/07/24 11:20:50;;;;;;;4.72;4.07;;;26.60;99.80;;;;;;5130016;27;20667;-79
2023/07/24 11:23:18;;;;;;;4.30;3.67;;;26.50;99.70;;;;;;5130095;27;20205;-79
2023/07/24 11:25:45;;;;;;;4.20;3.90;;;26.40;99.90;;;;;;5129581;27;20288;-79
2023/07/24 11:28:15;;;;;;;4.07;3.78;;;26.40;99.90;;;;;;5129421;27;20201;-79
2023/07/24 11:30:42;;;;;;;3.75;3.45;;;26.60;99.90;;;;;;5129529;27;20294;-79
2023/07/24 11:33:12;;;;;;;6.65;4.25;;;26.70;99.60;;;;;;5128836;27;20210;-79
2023/07/24 11:35:41;;;;;;;3.70;3.40;;;27.10;99.60;;;;;;5129319;27;20237;-79
2023/07/24 11:38:10;;;;;;;4.38;3.97;;;27.20;99.70;;;;;;5129078;27;20288;-79
2023/07/24 11:40:38;;;;;;;3.53;3.33;;;27.20;99.10;;;;;;5129277;27;20987;-79
2023/07/24 11:43:05;;;;;;;4.25;3.83;;;27.00;99.50;;;;;;5129037;27;20263;-79
2023/07/24 11:45:42;;;;;;;5.60;4.15;;;26.90;99.40;;;;;;5129297;27;20216;-79
2023/07/24 11:48:11;;;;;;;3.85;3.55;;;26.90;99.40;;;;;;5129244;27;20622;-79
2023/07/24 11:50:43;;;;;;;3.75;3.45;;;26.90;99.90;;;;;;5109898;27;20715;-79
2023/07/24 11:53:20;;;;;;;4.05;3.75;;;26.80;99.30;;;;;;5107820;28;20196;-79
2023/07/24 11:55:48;;;;;;;4.32;4.03;;;26.70;99.50;;;;;;5119806;27;20208;-79
2023/07/24 11:58:16;;;;;;;5.05;4.22;;;26.50;99.50;;;;;;5128374;27;20297;-79
2023/07/24 12:00:46;;;;;;;4.20;3.80;;;26.40;99.90;;;;;;5140780;27;20205;-79
2023/07/24 12:03:13;;;;;;;4.20;3.80;;;26.40;99.50;;;;;;5128025;27;20649;-79
2023/07/24 12:05:40;;;;;;;4.28;3.88;;;26.30;99.80;;;;;;5128301;27;20300;-80
2023/07/24 12:08:07;;;;;;;4.45;3.75;;;26.10;99.90;;;;;;5127991;27;20205;-81
2023/07/24 12:10:37;;;;;;;4.80;4.28;;;25.60;99.90;;;;;;5128071;27;20221;-80
2023/07/24 12:13:04;;;;;;;6.82;3.90;;;24.90;99.90;;;;;;5127409;27;20215;-80
2023/07/24 12:15:31;;;;;;;5.55;3.53;;;24.40;99.90;;;;;;5127876;27;20245;-79
2023/07/24 12:18:00;;;;;;;6.30;4.10;;;24.00;99.90;;;;;;5128181;27;20237;-80
2023/07/24 12:20:27;;;;;;;4.65;3.97;;;23.80;99.90;;;;;;5146154;27;20213;-79
2023/07/24 12:22:55;;;;;;;4.32;3.92;;;23.60;99.90;;;;;;5148661;27;20211;-79
2023/07/24 12:25:22;;;;;;;5.47;4.00;;;23.60;99.90;;;;;;5148415;27;20311;-79
2023/07/24 12:27:49;;;;;;;3.70;3.40;;;23.70;99.90;;;;;;5148616;27;20304;-81
2023/07/24 12:30:16;;;;;;;3.60;3.40;;;23.90;99.90;;;;;;5148063;27;20630;-79
2023/07/24 12:32:43;;;;;;;3.67;3.47;;;24.00;99.90;;;;;;5148325;27;20291;-79
2023/07/24 12:35:11;;;;;;;3.15;2.95;;;24.20;99.90;;;;;;5148130;27;20257;-79
2023/07/24 12:37:40;;;;;;;3.88;3.22;;;24.70;99.90;;;;;;5148076;27;20200;-80
2023/07/24 12:40:08;;;;;;;6.47;3.20;;;24.90;99.90;;;;;;5134148;27;20933;-79
2023/07/24 12:42:34;;;;;;;2.45;2.33;;;25.20;99.90;;;;;;5105833;28;20313;-79
2023/07/24 12:45:03;;;;;;;2.92;2.72;;;25.10;99.90;;;;;;5106362;28;20206;-80
2023/07/24 12:47:30;;;;;;;3.15;2.78;;;25.00;99.90;;;;;;5106764;28;20748;-81
2023/07/24 12:49:58;;;;;;;5.90;2.78;;;24.80;99.90;;;;;;5106556;28;20300;-79